Time;durP1;ratioP1;P1;durP2;ratioP2;P2;SDS_P1;SDS_P2;PMS_P1;PMS_P2;Temp;Humidity;BMP_temperature;BMP_pressure;BME280_temperature;BME280_humidity;BME280_pressure;Samples;Min_cycle;Max_cycle;Signal;HPM_P1;HPM_P2
2022/01/27 00:05:18;;;;;;;61.30;29.10;;;4.90;99.90;;;;;;5052085;28;20052;-74
2022/01/27 00:07:54;;;;;;;63.08;29.50;;;4.90;99.90;;;;;;5052074;28;20119;-75
2022/01/27 00:10:30;;;;;;;59.00;28.10;;;4.90;99.90;;;;;;5052358;28;20045;-72
2022/01/27 00:12:56;;;;;;;62.17;29.45;;;5.00;99.90;;;;;;5052211;28;20048;-73
2022/01/27 00:15:29;;;;;;;66.40;30.70;;;4.90;99.90;;;;;;5052534;28;20258;-73
2022/01/27 00:17:59;;;;;;;60.45;29.15;;;4.90;99.90;;;;;;5051969;28;20036;-74
2022/01/27 00:20:26;;;;;;;60.65;29.42;;;4.90;99.90;;;;;;5051842;28;20045;-73
2022/01/27 00:22:51;;;;;;;61.25;30.35;;;4.90;99.90;;;;;;5051984;28;20476;-73
2022/01/27 00:25:17;;;;;;;62.70;29.80;;;5.00;99.90;;;;;;5035829;28;20132;-75
2022/01/27 00:27:43;;;;;;;59.50;29.98;;;5.00;99.90;;;;;;5052225;28;20049;-73
2022/01/27 00:30:10;;;;;;;65.55;30.85;;;5.00;99.90;;;;;;5051822;28;20044;-73
2022/01/27 00:32:35;;;;;;;58.95;28.83;;;5.00;99.90;;;;;;5035012;28;20091;-73
2022/01/27 00:35:02;;;;;;;60.88;29.30;;;5.00;99.90;;;;;;5051967;28;20080;-74
2022/01/27 00:37:28;;;;;;;58.45;28.00;;;5.00;99.90;;;;;;5052180;28;20051;-73
2022/01/27 00:39:54;;;;;;;56.97;27.40;;;5.00;99.90;;;;;;5051825;28;20048;-74
2022/01/27 00:42:20;;;;;;;63.08;29.88;;;5.00;99.90;;;;;;5051556;28;20047;-74
2022/01/27 00:44:46;;;;;;;60.67;28.92;;;5.00;99.90;;;;;;5051816;28;20045;-74
2022/01/27 00:47:12;;;;;;;56.70;28.13;;;5.00;99.90;;;;;;5052820;28;20079;-76
2022/01/27 00:49:38;;;;;;;65.97;31.23;;;5.00;99.90;;;;;;5038556;28;20041;-74
2022/01/27 00:52:10;;;;;;;57.53;29.17;;;5.00;99.90;;;;;;5055353;28;20053;-73
2022/01/27 00:54:36;;;;;;;61.60;29.60;;;5.00;99.90;;;;;;5038541;28;20067;-74
2022/01/27 00:59:46;;;;;;;57.90;28.38;;;5.00;99.90;;;;;;5061376;28;20044;-73
2022/01/27 01:07:48;;;;;;;51.90;25.63;;;5.00;99.90;;;;;;5065235;28;20158;-73
2022/01/27 01:15:35;;;;;;;55.97;27.65;;;5.10;99.90;;;;;;5075001;28;20048;-74
2022/01/27 01:20:41;;;;;;;54.72;28.42;;;5.10;99.90;;;;;;5054592;28;20074;-74
2022/01/27 01:31:31;;;;;;;53.45;27.33;;;5.10;99.90;;;;;;5054685;28;20423;-76
2022/01/27 01:34:10;;;;;;;57.78;28.85;;;5.10;99.90;;;;;;5038381;28;20135;-74
2022/01/27 01:36:44;;;;;;;57.78;29.50;;;5.10;99.90;;;;;;5055052;28;20433;-74
2022/01/27 01:39:09;;;;;;;54.72;27.33;;;5.10;99.90;;;;;;5054468;28;20502;-74
2022/01/27 01:41:35;;;;;;;55.67;27.38;;;5.10;99.90;;;;;;5054163;28;20469;-75
2022/01/27 01:44:01;;;;;;;52.90;28.38;;;5.10;99.90;;;;;;5054742;28;20045;-73
2022/01/27 01:46:26;;;;;;;57.28;26.88;;;5.10;99.90;;;;;;5054130;28;20037;-73
2022/01/27 01:48:52;;;;;;;50.03;26.45;;;5.10;99.90;;;;;;5037958;28;20135;-76
2022/01/27 01:51:25;;;;;;;53.60;26.52;;;5.10;99.90;;;;;;5054643;28;20040;-75
2022/01/27 01:53:51;;;;;;;50.53;25.98;;;5.10;99.90;;;;;;5060953;28;20082;-75
2022/01/27 01:56:17;;;;;;;50.83;26.60;;;5.10;99.90;;;;;;5073824;28;20048;-73
2022/01/27 01:58:42;;;;;;;54.83;26.70;;;5.00;99.90;;;;;;5072723;28;20094;-74
2022/01/27 02:01:08;;;;;;;47.72;25.85;;;5.10;99.90;;;;;;5057997;28;20047;-75
2022/01/27 02:03:34;;;;;;;50.92;26.38;;;5.10;99.90;;;;;;5067244;28;20045;-74
2022/01/27 02:06:00;;;;;;;51.88;24.73;;;5.00;99.90;;;;;;5054160;28;20094;-75
2022/01/27 02:19:23;;;;;;;48.30;24.88;;;5.10;99.90;;;;;;5073903;28;20098;-73
2022/01/27 02:22:03;;;;;;;52.63;23.80;;;5.10;99.90;;;;;;5073875;28;20045;-74
2022/01/27 02:24:30;;;;;;;;;;;5.20;99.90;;;;;;5057327;28;20490;-74
2022/01/27 02:26:57;;;;;;;53.30;25.75;;;5.20;99.90;;;;;;5073716;28;19920;-73
2022/01/27 02:29:24;;;;;;;49.92;26.05;;;5.20;99.90;;;;;;5056910;28;20051;-74
2022/01/27 02:31:53;;;;;;;51.75;26.27;;;5.20;99.90;;;;;;5073581;28;20052;-74
2022/01/27 02:34:19;;;;;;;49.67;25.10;;;5.20;99.90;;;;;;5073146;28;20058;-74
2022/01/27 02:36:45;;;;;;;49.53;24.88;;;5.20;99.90;;;;;;5073391;28;20467;-74
2022/01/27 02:39:11;;;;;;;49.95;25.85;;;5.30;99.90;;;;;;5073111;28;20530;-76
2022/01/27 02:41:51;;;;;;;50.15;26.35;;;5.30;99.90;;;;;;5073970;28;20045;-73
2022/01/27 02:44:45;;;;;;;48.78;25.50;;;5.30;99.90;;;;;;5055974;28;20394;-74
2022/01/27 02:47:12;;;;;;;52.97;26.02;;;5.30;99.90;;;;;;5072901;28;20044;-73
2022/01/27 02:49:37;;;;;;;52.88;26.48;;;5.30;99.90;;;;;;5072987;28;20072;-74
2022/01/27 02:52:03;;;;;;;52.25;26.42;;;5.30;99.90;;;;;;5057040;28;20482;-76
2022/01/27 02:54:29;;;;;;;54.75;25.70;;;5.30;99.90;;;;;;5056615;28;20063;-74
2022/01/27 02:56:54;;;;;;;53.58;26.13;;;5.30;99.90;;;;;;5066329;28;20106;-74
2022/01/27 02:59:21;;;;;;;50.55;24.95;;;5.30;99.90;;;;;;5052689;28;20041;-74
2022/01/27 03:01:50;;;;;;;48.88;25.63;;;5.30;99.90;;;;;;5053671;28;20052;-75
2022/01/27 03:04:16;;;;;;;48.75;24.27;;;5.40;99.90;;;;;;5053214;28;20063;-74
2022/01/27 03:06:43;;;;;;;54.15;26.27;;;5.40;99.90;;;;;;5053976;28;20036;-73
2022/01/27 03:09:09;;;;;;;49.42;24.25;;;5.40;99.90;;;;;;5036331;28;20045;-73
2022/01/27 03:11:47;;;;;;;47.70;25.45;;;5.30;99.90;;;;;;5052499;28;20056;-74
2022/01/27 03:14:14;;;;;;;48.58;24.70;;;5.40;99.90;;;;;;5036698;28;20049;-73
2022/01/27 03:16:40;;;;;;;50.80;24.63;;;5.40;99.90;;;;;;5055404;28;20032;-73
2022/01/27 03:19:06;;;;;;;57.88;25.55;;;5.40;99.90;;;;;;5047865;28;20041;-73
2022/01/27 03:21:32;;;;;;;47.63;25.65;;;5.40;99.90;;;;;;5051490;28;20044;-74
2022/01/27 03:23:58;;;;;;;48.75;24.75;;;5.40;99.90;;;;;;5070159;28;20035;-73
2022/01/27 03:26:24;;;;;;;50.97;24.83;;;5.40;99.90;;;;;;5035956;28;20068;-74
2022/01/27 03:28:50;;;;;;;46.75;23.25;;;5.40;99.90;;;;;;5052870;28;20033;-73
2022/01/27 03:31:16;;;;;;;52.05;25.02;;;5.40;99.90;;;;;;5053242;28;20033;-73
2022/01/27 03:33:42;;;;;;;49.88;25.10;;;5.40;99.90;;;;;;5052732;28;20076;-74
2022/01/27 03:36:09;;;;;;;51.38;23.90;;;5.40;99.90;;;;;;5054483;28;20033;-73
2022/01/27 03:38:35;;;;;;;50.13;23.48;;;5.50;99.90;;;;;;5072296;28;20047;-73
2022/01/27 03:41:05;;;;;;;52.13;25.75;;;5.50;99.90;;;;;;5072410;28;20105;-74
2022/01/27 03:43:31;;;;;;;45.42;22.73;;;5.50;99.90;;;;;;5072683;28;20046;-72
2022/01/27 03:45:57;;;;;;;52.88;24.45;;;5.50;99.90;;;;;;5055754;28;20123;-74
2022/01/27 03:48:23;;;;;;;44.28;22.20;;;5.50;99.90;;;;;;5055700;28;20049;-73
2022/01/27 03:50:48;;;;;;;45.08;23.23;;;5.60;99.90;;;;;;5055991;28;20055;-76
2022/01/27 03:53:15;;;;;;;46.88;23.80;;;5.60;99.90;;;;;;5055416;28;20048;-74
2022/01/27 03:55:41;;;;;;;51.92;25.65;;;5.60;99.90;;;;;;5055336;28;20044;-75
2022/01/27 03:58:07;;;;;;;51.08;25.02;;;5.60;99.90;;;;;;5072415;28;20462;-73
2022/01/27 04:00:33;;;;;;;51.20;24.27;;;5.50;99.90;;;;;;5055381;28;20052;-74
2022/01/27 04:05:34;;;;;;;52.33;25.13;;;5.50;99.90;;;;;;5071954;28;20055;-74
2022/01/27 04:08:00;;;;;;;50.63;25.08;;;5.50;99.90;;;;;;5072037;28;20382;-73
2022/01/27 04:10:25;;;;;;;46.90;24.42;;;5.40;99.90;;;;;;5055386;28;20139;-71
2022/01/27 04:12:52;;;;;;;52.42;26.15;;;5.40;99.90;;;;;;5068032;28;20044;-73
2022/01/27 04:15:18;;;;;;;57.47;24.88;;;5.40;99.90;;;;;;5052415;28;20107;-74
2022/01/27 04:17:44;;;;;;;46.63;23.65;;;5.40;99.90;;;;;;5035454;28;20356;-76
2022/01/27 04:20:10;;;;;;;48.78;24.58;;;5.50;99.90;;;;;;5058914;28;20470;-74
2022/01/27 04:22:35;;;;;;;49.10;24.58;;;5.40;99.90;;;;;;5050057;28;20483;-73
2022/01/27 04:25:01;;;;;;;49.72;25.05;;;5.40;99.90;;;;;;5055554;28;20086;-72
2022/01/27 04:27:31;;;;;;;51.08;25.38;;;5.50;99.90;;;;;;5056411;28;20029;-76
2022/01/27 04:29:57;;;;;;;47.78;22.08;;;5.50;99.90;;;;;;5066262;28;20045;-76
2022/01/27 04:32:29;;;;;;;51.85;25.27;;;5.50;99.90;;;;;;5056350;28;20041;-73
2022/01/27 04:35:00;;;;;;;54.83;25.23;;;5.50;99.90;;;;;;5056350;28;20033;-74
2022/01/27 04:37:27;;;;;;;48.47;23.70;;;5.50;99.90;;;;;;5075721;28;20059;-75
2022/01/27 04:40:03;;;;;;;51.38;25.20;;;5.60;99.90;;;;;;5076253;28;20045;-76
2022/01/27 04:42:44;;;;;;;52.90;24.05;;;5.50;99.90;;;;;;5075371;28;20042;-74
2022/01/27 04:45:11;;;;;;;53.63;24.48;;;5.60;99.90;;;;;;5074501;28;20044;-73
2022/01/27 04:47:43;;;;;;;45.85;23.00;;;5.60;99.90;;;;;;5055309;28;20424;-73
2022/01/27 04:50:08;;;;;;;42.38;19.08;;;5.50;99.90;;;;;;5055037;28;20037;-75
2022/01/27 04:52:39;;;;;;;43.03;21.70;;;5.60;99.90;;;;;;5056079;28;20068;-74
2022/01/27 04:55:09;;;;;;;44.08;21.85;;;5.60;99.90;;;;;;5055971;28;20049;-74
2022/01/27 04:57:37;;;;;;;45.95;23.75;;;5.60;99.90;;;;;;5055396;28;20045;-76
2022/01/27 05:00:04;;;;;;;45.17;23.13;;;5.60;99.90;;;;;;5055272;28;20044;-74
2022/01/27 05:02:40;;;;;;;43.70;20.00;;;5.70;99.90;;;;;;5054958;28;20122;-74
2022/01/27 05:05:05;;;;;;;50.65;22.95;;;5.70;99.90;;;;;;5038845;28;20053;-73
2022/01/27 05:07:31;;;;;;;49.63;23.55;;;5.70;99.90;;;;;;5055693;28;20071;-73
2022/01/27 05:10:02;;;;;;;48.55;22.10;;;5.70;99.90;;;;;;5038654;28;20037;-73
2022/01/27 05:12:49;;;;;;;46.63;22.23;;;5.70;99.90;;;;;;5055199;28;20122;-74
2022/01/27 05:15:15;;;;;;;47.67;22.83;;;5.70;99.90;;;;;;5055040;28;20076;-73
2022/01/27 05:17:40;;;;;;;47.33;21.58;;;5.70;99.90;;;;;;5038738;28;20041;-75
2022/01/27 05:20:06;;;;;;;48.50;22.55;;;5.80;99.90;;;;;;5054842;28;20052;-74
2022/01/27 05:22:32;;;;;;;40.38;19.55;;;5.80;99.90;;;;;;5063398;28;20043;-74
2022/01/27 05:24:58;;;;;;;50.03;22.83;;;5.80;99.90;;;;;;5074726;28;20041;-73
2022/01/27 05:27:24;;;;;;;44.40;19.90;;;5.80;99.90;;;;;;5074624;28;20037;-72
2022/01/27 05:29:51;;;;;;;42.80;21.40;;;5.80;99.90;;;;;;5073534;28;20036;-73
2022/01/27 05:32:20;;;;;;;48.92;22.25;;;5.80;99.90;;;;;;5064075;28;20041;-73
2022/01/27 05:34:46;;;;;;;46.00;22.35;;;5.80;99.90;;;;;;5055695;28;20041;-73
2022/01/27 05:37:12;;;;;;;48.60;22.17;;;5.80;99.90;;;;;;5054672;28;20139;-73
2022/01/27 05:39:37;;;;;;;45.58;22.08;;;5.80;99.90;;;;;;5054464;28;20454;-72
2022/01/27 05:42:03;;;;;;;52.88;22.10;;;5.80;99.90;;;;;;5055204;28;20029;-72
2022/01/27 05:44:31;;;;;;;49.97;22.70;;;5.80;99.90;;;;;;5065651;28;20091;-73
2022/01/27 05:46:57;;;;;;;42.25;20.35;;;5.80;99.90;;;;;;5038200;28;20064;-73
2022/01/27 05:49:23;;;;;;;46.17;21.83;;;5.90;99.90;;;;;;5068042;28;20059;-73
2022/01/27 05:51:48;;;;;;;52.85;22.83;;;5.90;99.90;;;;;;5074353;28;20394;-74
2022/01/27 05:54:14;;;;;;;44.60;19.92;;;5.90;99.90;;;;;;5057806;28;20059;-75
2022/01/27 05:56:40;;;;;;;44.75;19.52;;;5.90;99.90;;;;;;5057618;28;20375;-74
2022/01/27 05:59:05;;;;;;;51.03;22.02;;;5.90;99.90;;;;;;5074345;28;20080;-72
2022/01/27 06:01:31;;;;;;;42.00;21.63;;;5.90;99.90;;;;;;5074286;28;20040;-73
2022/01/27 06:03:56;;;;;;;44.47;22.05;;;5.90;99.90;;;;;;5074153;28;20049;-73
2022/01/27 06:06:22;;;;;;;51.63;21.83;;;5.90;99.90;;;;;;5074193;28;20471;-74
2022/01/27 06:08:48;;;;;;;46.88;22.45;;;5.90;99.90;;;;;;5074376;28;20044;-73
2022/01/27 06:11:13;;;;;;;46.22;22.20;;;5.90;99.90;;;;;;5074058;28;20048;-74
2022/01/27 06:13:39;;;;;;;41.38;18.75;;;5.90;99.90;;;;;;5073498;28;20395;-72
2022/01/27 06:16:09;;;;;;;40.78;19.02;;;5.90;99.90;;;;;;5057326;28;20051;-73
2022/01/27 06:18:36;;;;;;;49.63;21.10;;;5.80;99.90;;;;;;5073640;28;20071;-73
2022/01/27 06:21:04;;;;;;;53.60;23.98;;;5.80;99.90;;;;;;5073512;28;20082;-75
2022/01/27 06:23:31;;;;;;;51.78;21.80;;;5.70;99.90;;;;;;5073674;28;20082;-73
2022/01/27 06:26:01;;;;;;;57.25;24.73;;;5.70;99.90;;;;;;5073167;28;20040;-73
2022/01/27 06:28:27;;;;;;;49.55;19.73;;;5.70;99.90;;;;;;5057301;28;20036;-72
2022/01/27 06:30:52;;;;;;;51.97;21.55;;;5.70;99.90;;;;;;5073463;28;20033;-74
2022/01/27 06:33:18;;;;;;;59.22;25.00;;;5.60;99.90;;;;;;5073790;28;20374;-73
2022/01/27 06:35:44;;;;;;;52.50;23.35;;;5.60;99.90;;;;;;5073725;28;20056;-72
2022/01/27 06:38:10;;;;;;;62.72;25.58;;;5.60;99.90;;;;;;5058799;28;20116;-73
2022/01/27 06:40:36;;;;;;;63.50;25.77;;;5.50;99.90;;;;;;5036496;28;20048;-73
2022/01/27 06:43:02;;;;;;;64.05;26.00;;;5.50;99.90;;;;;;5053408;28;20071;-73
2022/01/27 06:45:27;;;;;;;57.83;25.65;;;5.50;99.90;;;;;;5052594;28;20379;-73
2022/01/27 06:47:53;;;;;;;64.25;26.75;;;5.50;99.90;;;;;;5058704;28;20035;-73
2022/01/27 06:50:19;;;;;;;47.65;21.40;;;5.50;99.90;;;;;;5051144;28;20033;-73
2022/01/27 06:52:45;;;;;;;55.65;25.45;;;5.50;99.90;;;;;;5048663;28;20109;-73
2022/01/27 06:55:13;;;;;;;61.13;25.23;;;5.50;99.90;;;;;;5073521;28;20037;-72
2022/01/27 06:57:39;;;;;;;63.88;26.10;;;5.50;99.90;;;;;;5053790;28;20390;-74
2022/01/27 07:00:08;;;;;;;58.13;24.52;;;5.50;99.90;;;;;;5053559;28;20094;-72
2022/01/27 07:02:34;;;;;;;61.53;24.57;;;5.50;99.90;;;;;;5063767;28;20044;-73
2022/01/27 07:05:00;;;;;;;58.28;24.77;;;5.50;99.90;;;;;;5066092;28;20041;-73
2022/01/27 07:07:25;;;;;;;53.90;24.88;;;5.60;99.90;;;;;;5072521;28;20090;-73
2022/01/27 07:09:51;;;;;;;46.38;19.77;;;5.60;99.90;;;;;;5072547;28;20040;-72
2022/01/27 07:12:17;;;;;;;65.15;26.75;;;5.60;99.90;;;;;;5073505;28;20425;-73
2022/01/27 07:14:42;;;;;;;57.17;25.45;;;5.60;99.90;;;;;;5072536;28;20048;-73
2022/01/27 07:17:08;;;;;;;62.63;25.67;;;5.60;99.90;;;;;;5072565;28;20475;-73
2022/01/27 07:19:34;;;;;;;61.95;25.35;;;5.60;99.90;;;;;;5072653;28;20051;-73
2022/01/27 07:21:59;;;;;;;51.47;23.08;;;5.60;99.90;;;;;;5072425;28;20047;-72
2022/01/27 07:24:25;;;;;;;55.22;24.23;;;5.60;99.90;;;;;;5072189;28;20072;-73
2022/01/27 07:26:51;;;;;;;57.55;24.08;;;5.70;99.90;;;;;;5072149;28;20037;-74
2022/01/27 07:29:17;;;;;;;50.25;23.67;;;5.70;99.90;;;;;;5072772;28;20041;-73
2022/01/27 07:31:43;;;;;;;53.20;22.33;;;5.70;99.90;;;;;;5042297;28;20037;-73
2022/01/27 07:34:08;;;;;;;55.33;24.20;;;5.70;99.90;;;;;;5035699;28;20045;-73
2022/01/27 07:36:34;;;;;;;50.13;22.40;;;5.70;99.90;;;;;;5052422;28;20048;-76
2022/01/27 07:39:01;;;;;;;52.83;22.73;;;5.70;99.90;;;;;;5036019;28;20056;-73
2022/01/27 07:41:27;;;;;;;54.33;22.95;;;5.80;99.90;;;;;;5052549;28;20398;-72
2022/01/27 07:43:52;;;;;;;49.58;22.30;;;5.70;99.90;;;;;;5035933;28;20099;-73
2022/01/27 07:46:18;;;;;;;48.65;21.15;;;5.80;99.90;;;;;;5065360;28;20040;-73
2022/01/27 07:48:44;;;;;;;38.85;19.60;;;5.80;99.90;;;;;;5054813;28;20171;-71
2022/01/27 07:51:10;;;;;;;39.22;18.13;;;5.80;99.90;;;;;;5071866;28;20036;-73
2022/01/27 07:53:38;;;;;;;39.90;18.25;;;5.90;99.90;;;;;;5072237;28;20402;-73
2022/01/27 07:56:04;;;;;;;35.05;17.63;;;5.90;99.90;;;;;;5072414;28;20037;-72
2022/01/27 07:58:31;;;;;;;33.65;16.33;;;5.90;99.90;;;;;;5059423;28;20109;-72
2022/01/27 08:00:58;;;;;;;41.33;18.00;;;5.90;99.90;;;;;;5069193;28;20041;-71
2022/01/27 08:03:23;;;;;;;36.85;17.65;;;6.00;99.90;;;;;;5039307;28;20124;-72
2022/01/27 08:05:49;;;;;;;32.30;16.50;;;5.90;99.90;;;;;;5047907;28;20465;-71
2022/01/27 08:08:15;;;;;;;33.08;16.67;;;6.00;99.90;;;;;;5056338;28;20043;-71
2022/01/27 08:10:41;;;;;;;34.63;16.92;;;6.00;99.90;;;;;;5056133;28;20617;-72
2022/01/27 08:13:07;;;;;;;36.67;17.60;;;6.10;99.90;;;;;;5056436;28;20055;-72
2022/01/27 08:15:33;;;;;;;37.25;18.65;;;6.10;99.90;;;;;;5056017;28;20137;-72
2022/01/27 08:18:00;;;;;;;38.15;18.92;;;6.10;99.90;;;;;;5039271;28;20083;-72
2022/01/27 08:20:26;;;;;;;36.50;18.88;;;6.10;99.90;;;;;;5056060;28;20131;-72
2022/01/27 08:22:53;;;;;;;35.90;18.05;;;6.10;99.90;;;;;;5064143;28;20033;-71
2022/01/27 08:25:20;;;;;;;40.95;19.67;;;6.10;99.90;;;;;;5075845;28;20470;-72
2022/01/27 08:27:49;;;;;;;44.95;20.42;;;6.20;99.90;;;;;;5075775;28;20048;-71
2022/01/27 08:30:17;;;;;;;39.97;20.25;;;6.20;99.90;;;;;;5075785;28;20471;-72
2022/01/27 08:33:04;;;;;;;48.38;21.40;;;6.20;99.90;;;;;;5075356;28;20044;-72
2022/01/27 08:35:30;;;;;;;43.72;21.40;;;6.30;99.90;;;;;;5059547;28;20044;-71
2022/01/27 08:37:55;;;;;;;54.28;22.35;;;6.30;99.90;;;;;;5075921;28;20045;-72
2022/01/27 08:40:21;;;;;;;53.67;23.05;;;6.30;99.90;;;;;;5059269;28;20040;-72
2022/01/27 08:42:48;;;;;;;59.33;22.55;;;6.30;99.90;;;;;;5075620;28;20241;-71
2022/01/27 08:45:16;;;;;;;61.55;22.55;;;6.40;99.90;;;;;;5075331;28;20040;-72
2022/01/27 08:47:46;;;;;;;63.33;23.15;;;6.40;99.90;;;;;;5059115;28;20048;-72
2022/01/27 08:50:13;;;;;;;66.88;25.35;;;6.40;99.90;;;;;;5075568;28;20044;-71
2022/01/27 08:52:40;;;;;;;60.30;24.33;;;6.40;99.90;;;;;;5075727;28;20048;-72
2022/01/27 08:55:07;;;;;;;62.35;23.80;;;6.50;99.90;;;;;;5075474;28;20540;-71
2022/01/27 08:57:34;;;;;;;59.15;22.30;;;6.50;99.90;;;;;;5058597;28;20040;-73
2022/01/27 09:00:01;;;;;;;61.67;23.00;;;6.50;99.90;;;;;;5075020;28;20442;-72
2022/01/27 09:02:28;;;;;;;57.00;23.08;;;6.50;99.90;;;;;;5075104;28;20056;-71
2022/01/27 09:04:53;;;;;;;53.90;21.13;;;6.60;99.90;;;;;;5075489;28;20131;-72
2022/01/27 09:07:20;;;;;;;58.58;21.85;;;6.60;99.90;;;;;;5058185;28;20169;-73
2022/01/27 09:09:46;;;;;;;57.80;20.23;;;6.70;99.90;;;;;;5074196;28;20054;-71
2022/01/27 09:12:13;;;;;;;56.28;20.40;;;6.70;99.90;;;;;;5074240;28;20372;-72
2022/01/27 09:14:43;;;;;;;46.97;19.63;;;6.80;99.90;;;;;;5075295;28;20040;-72
2022/01/27 09:17:10;;;;;;;46.47;19.73;;;6.80;99.90;;;;;;5059023;28;20047;-72
2022/01/27 09:19:38;;;;;;;50.58;19.83;;;6.90;99.90;;;;;;5075029;28;20439;-74
2022/01/27 09:22:08;;;;;;;48.53;17.88;;;6.90;99.90;;;;;;5074672;28;20082;-72
2022/01/27 09:24:41;;;;;;;47.38;17.00;;;7.00;99.90;;;;;;5074683;28;20044;-72
2022/01/27 09:27:07;;;;;;;49.10;18.45;;;7.10;99.90;;;;;;5056681;28;20554;-72
2022/01/27 09:29:33;;;;;;;48.78;17.13;;;7.10;99.90;;;;;;5057593;28;20140;-71
2022/01/27 09:32:01;;;;;;;43.35;17.02;;;7.10;99.90;;;;;;5034119;28;20057;-74
2022/01/27 09:34:27;;;;;;;44.45;15.93;;;7.20;99.90;;;;;;5053798;28;20055;-73
2022/01/27 09:36:54;;;;;;;45.90;16.25;;;7.20;99.90;;;;;;5037306;28;20053;-73
2022/01/27 09:39:20;;;;;;;45.35;15.95;;;7.20;99.90;;;;;;5036817;28;20095;-71
2022/01/27 09:41:49;;;;;;;37.65;15.13;;;7.30;99.90;;;;;;5052756;28;20094;-72
2022/01/27 09:44:16;;;;;;;45.08;14.90;;;7.30;99.90;;;;;;5046148;28;20040;-73
2022/01/27 09:46:45;;;;;;;44.85;14.63;;;7.30;99.90;;;;;;5048889;28;20128;-72
2022/01/27 09:49:19;;;;;;;40.03;14.05;;;7.40;99.90;;;;;;5039236;28;20049;-72
2022/01/27 09:51:46;;;;;;;33.67;13.68;;;7.40;99.90;;;;;;5036574;28;20076;-73
2022/01/27 09:54:16;;;;;;;45.25;15.65;;;7.50;99.90;;;;;;5036316;28;20448;-73
2022/01/27 09:56:42;;;;;;;31.60;12.65;;;7.50;99.90;;;;;;5036420;28;20395;-74
2022/01/27 09:59:09;;;;;;;32.40;12.40;;;7.60;99.90;;;;;;5053049;28;20060;-72
2022/01/27 10:01:36;;;;;;;37.35;12.30;;;7.60;99.90;;;;;;5056787;28;20049;-71
2022/01/27 10:04:07;;;;;;;45.90;12.35;;;7.70;99.90;;;;;;5056997;28;20080;-72
2022/01/27 10:06:35;;;;;;;32.88;11.23;;;7.70;99.90;;;;;;5071776;28;20439;-72
2022/01/27 10:09:12;;;;;;;37.50;11.65;;;7.80;99.90;;;;;;5074062;28;20398;-74
2022/01/27 10:11:37;;;;;;;31.27;11.98;;;7.80;99.90;;;;;;5074523;28;20040;-75
2022/01/27 10:14:22;;;;;;;31.90;11.45;;;7.80;99.90;;;;;;5074037;28;20037;-75
2022/01/27 10:16:51;;;;;;;27.77;10.63;;;7.80;99.90;;;;;;5041251;28;20057;-73
2022/01/27 10:19:17;;;;;;;37.85;13.82;;;7.80;99.90;;;;;;5053172;28;20127;-72
2022/01/27 10:21:43;;;;;;;42.38;12.23;;;7.90;99.90;;;;;;5053867;28;20093;-72
2022/01/27 10:24:22;;;;;;;36.92;12.63;;;7.90;99.90;;;;;;5062290;28;20044;-73
2022/01/27 10:27:15;;;;;;;28.65;11.23;;;7.80;99.90;;;;;;5072875;28;20083;-72
2022/01/27 10:29:50;;;;;;;28.63;10.45;;;7.90;99.90;;;;;;5073128;28;20036;-73
2022/01/27 10:32:16;;;;;;;29.02;9.75;;;7.90;99.90;;;;;;5073578;28;20040;-72
2022/01/27 10:35:01;;;;;;;34.17;10.30;;;7.90;99.90;;;;;;5073594;28;20040;-74
2022/01/27 10:37:27;;;;;;;32.55;11.77;;;7.90;99.90;;;;;;5056766;28;20044;-72
2022/01/27 10:39:53;;;;;;;33.35;10.13;;;7.90;99.90;;;;;;5073056;28;20044;-72
2022/01/27 10:42:24;;;;;;;31.88;10.20;;;7.90;99.90;;;;;;5073481;28;20470;-75
2022/01/27 10:44:56;;;;;;;29.13;8.07;;;7.90;99.90;;;;;;5073462;28;20040;-73
2022/01/27 10:47:29;;;;;;;32.50;10.32;;;7.90;99.90;;;;;;5073375;28;20044;-72
2022/01/27 10:50:05;;;;;;;31.85;9.95;;;8.00;99.90;;;;;;5073407;28;20044;-72
2022/01/27 10:55:13;;;;;;;32.42;9.85;;;8.00;99.90;;;;;;5057578;28;20132;-75
2022/01/27 10:57:39;;;;;;;27.30;9.93;;;8.00;99.90;;;;;;5036526;28;20037;-73
2022/01/27 11:00:14;;;;;;;26.70;10.13;;;8.00;99.90;;;;;;5053167;28;20037;-74
2022/01/27 11:02:49;;;;;;;28.67;10.20;;;8.00;99.90;;;;;;5052612;28;20053;-73
2022/01/27 11:05:20;;;;;;;29.88;10.13;;;8.00;99.90;;;;;;5036075;28;20088;-72
2022/01/27 11:07:46;;;;;;;28.02;9.65;;;8.10;99.90;;;;;;5052817;28;20044;-73
2022/01/27 11:10:15;;;;;;;30.05;10.32;;;8.00;99.90;;;;;;5036518;28;20072;-72
2022/01/27 11:12:42;;;;;;;26.23;9.95;;;8.00;99.90;;;;;;5052890;28;20052;-72
2022/01/27 11:15:10;;;;;;;28.58;9.15;;;8.00;99.90;;;;;;5036250;28;20128;-72
2022/01/27 11:17:38;;;;;;;29.38;10.13;;;8.00;99.90;;;;;;5052321;28;20479;-72
2022/01/27 11:20:28;;;;;;;31.35;10.52;;;8.00;99.90;;;;;;5053435;28;20041;-72
2022/01/27 11:27:53;;;;;;;26.27;7.93;;;8.00;99.90;;;;;;5072526;28;20091;-72
2022/01/27 11:30:31;;;;;;;23.60;7.80;;;8.10;99.90;;;;;;5072291;28;20033;-72
2022/01/27 11:33:03;;;;;;;29.95;8.20;;;8.10;99.90;;;;;;5072568;28;20387;-73
2022/01/27 11:35:29;;;;;;;28.38;11.68;;;8.10;99.90;;;;;;5072771;28;20045;-75
2022/01/27 11:37:58;;;;;;;30.60;10.38;;;8.10;99.90;;;;;;5072526;28;20037;-74
2022/01/27 11:40:46;;;;;;;30.40;12.73;;;8.20;99.90;;;;;;5055503;28;20037;-72
2022/01/27 11:43:17;;;;;;;24.17;7.88;;;8.20;99.90;;;;;;5072281;28;20375;-72
2022/01/27 11:45:45;;;;;;;24.00;9.63;;;8.30;99.90;;;;;;5072194;28;20496;-74
2022/01/27 11:48:18;;;;;;;28.40;9.90;;;8.30;99.90;;;;;;5055792;28;20036;-74
2022/01/27 11:51:09;;;;;;;20.38;8.05;;;8.40;99.90;;;;;;5055535;28;20045;-72
2022/01/27 11:53:42;;;;;;;20.92;5.63;;;8.40;99.90;;;;;;5052434;28;20037;-74
2022/01/27 11:56:30;;;;;;;21.10;6.40;;;8.50;99.90;;;;;;5052737;28;20060;-72
2022/01/27 11:58:59;;;;;;;18.00;6.40;;;8.50;99.90;;;;;;5065589;28;20048;-71
2022/01/27 12:01:27;;;;;;;15.80;5.20;;;8.50;99.90;;;;;;5051952;28;20041;-72
2022/01/27 12:04:07;;;;;;;22.85;8.38;;;8.50;99.90;;;;;;5035176;28;20053;-72
2022/01/27 12:06:48;;;;;;;17.23;5.25;;;8.60;99.90;;;;;;5052453;28;20041;-72
2022/01/27 12:09:17;;;;;;;21.75;6.20;;;8.60;99.90;;;;;;5035323;28;20129;-72
2022/01/27 12:11:49;;;;;;;18.92;5.97;;;8.60;99.90;;;;;;5064032;28;20037;-72
2022/01/27 12:14:25;;;;;;;22.98;5.53;;;8.60;99.90;;;;;;5070987;28;20049;-72
2022/01/27 12:17:10;;;;;;;24.73;7.22;;;8.70;99.90;;;;;;5039691;28;20039;-72
2022/01/27 12:20:02;;;;;;;21.65;5.15;;;8.70;99.90;;;;;;5052236;28;20049;-74
2022/01/27 12:22:45;;;;;;;23.63;5.60;;;8.80;99.90;;;;;;5052762;28;20041;-72
2022/01/27 12:25:12;;;;;;;16.13;4.03;;;8.90;99.90;;;;;;5053388;28;20075;-73
2022/01/27 12:27:39;;;;;;;24.70;4.93;;;8.90;99.90;;;;;;5034992;28;20041;-72
2022/01/27 12:30:09;;;;;;;13.95;4.28;;;9.00;99.90;;;;;;5035361;28;20041;-73
2022/01/27 12:32:35;;;;;;;19.77;3.80;;;9.00;99.90;;;;;;5057895;28;20417;-72
2022/01/27 12:35:04;;;;;;;15.30;4.18;;;9.00;99.90;;;;;;5071967;28;20581;-75
2022/01/27 12:37:34;;;;;;;19.08;5.25;;;9.00;99.90;;;;;;5071925;28;20471;-72
2022/01/27 12:40:07;;;;;;;15.85;4.13;;;9.00;99.90;;;;;;5071496;28;20417;-73
2022/01/27 12:42:37;;;;;;;23.52;6.18;;;9.00;99.90;;;;;;5055117;28;20094;-73
2022/01/27 12:45:08;;;;;;;25.40;5.57;;;9.00;99.90;;;;;;5075385;28;20102;-74
2022/01/27 12:47:38;;;;;;;16.98;4.07;;;9.10;99.90;;;;;;5068346;28;20116;-72
2022/01/27 12:50:15;;;;;;;22.63;4.15;;;9.10;99.90;;;;;;5055576;28;20124;-73
2022/01/27 12:52:43;;;;;;;19.05;4.10;;;9.10;99.90;;;;;;5039200;28;20115;-72
2022/01/27 12:55:22;;;;;;;29.25;4.53;;;9.10;99.90;;;;;;5058088;28;20395;-73
2022/01/27 12:58:00;;;;;;;17.70;4.65;;;9.10;99.90;;;;;;5075053;28;20043;-73
2022/01/27 13:00:28;;;;;;;23.77;3.58;;;9.10;99.90;;;;;;5075159;28;20040;-72
2022/01/27 13:03:01;;;;;;;23.42;4.47;;;9.10;99.90;;;;;;5065316;28;20045;-73
2022/01/27 13:05:38;;;;;;;20.63;3.60;;;9.10;99.90;;;;;;5055063;28;20395;-72
2022/01/27 13:08:12;;;;;;;14.20;3.53;;;9.10;99.90;;;;;;5054879;28;20044;-73
2022/01/27 13:10:39;;;;;;;22.88;3.63;;;9.10;99.90;;;;;;5062069;28;20594;-72
2022/01/27 13:13:16;;;;;;;19.98;3.28;;;9.10;99.90;;;;;;5075332;28;20046;-73
2022/01/27 13:15:43;;;;;;;18.05;3.47;;;9.20;99.90;;;;;;5075060;28;20043;-72
2022/01/27 13:18:25;;;;;;;24.85;4.35;;;9.10;99.90;;;;;;5063226;28;20055;-72
2022/01/27 13:20:55;;;;;;;19.08;4.05;;;9.10;99.90;;;;;;5054841;28;20041;-72
2022/01/27 13:25:50;;;;;;;14.30;3.25;;;9.10;99.90;;;;;;5056402;28;20166;-74
2022/01/27 13:28:22;;;;;;;18.38;3.92;;;9.20;99.90;;;;;;5054930;28;20056;-74
2022/01/27 13:30:58;;;;;;;15.52;3.00;;;9.20;99.90;;;;;;5054630;28;20049;-72
2022/01/27 13:33:25;;;;;;;21.40;4.25;;;9.20;99.90;;;;;;5054022;28;20060;-72
2022/01/27 13:35:54;;;;;;;18.35;3.72;;;9.10;99.90;;;;;;5064430;28;20041;-74
2022/01/27 13:38:28;;;;;;;29.38;6.47;;;9.10;99.90;;;;;;5054682;28;20479;-73